sensor_id;sensor_type;location;lat;lon;timestamp;P1;durP1;ratioP1;P2;durP2;ratioP2
50363;SDS011;36272;59.400;17.982;2023-04-12T00:02:56;18.83;;;10.30;;
50363;SDS011;36272;59.400;17.982;2023-04-12T00:07:59;15.02;;;9.63;;
50363;SDS011;36272;59.400;17.982;2023-04-12T00:13:03;15.43;;;11.23;;
50363;SDS011;36272;59.400;17.982;2023-04-12T00:18:05;23.15;;;11.30;;
50363;SDS011;36272;59.400;17.982;2023-04-12T00:23:07;18.25;;;11.55;;
50363;SDS011;36272;59.400;17.982;2023-04-12T00:28:10;19.58;;;11.60;;
50363;SDS011;36272;59.400;17.982;2023-04-12T00:33:11;21.02;;;11.65;;
50363;SDS011;36272;59.400;17.982;2023-04-12T00:38:13;18.60;;;11.40;;
50363;SDS011;36272;59.400;17.982;2023-04-12T00:43:15;17.42;;;10.63;;
50363;SDS011;36272;59.400;17.982;2023-04-12T00:48:18;18.42;;;10.27;;
50363;SDS011;36272;59.400;17.982;2023-04-12T00:53:20;17.55;;;10.98;;
50363;SDS011;36272;59.400;17.982;2023-04-12T00:58:25;15.27;;;9.70;;
50363;SDS011;36272;59.400;17.982;2023-04-12T01:03:27;19.75;;;10.45;;
50363;SDS011;36272;59.400;17.982;2023-04-12T01:08:37;22.45;;;10.15;;
50363;SDS011;36272;59.400;17.982;2023-04-12T01:30:06;18.02;;;11.35;;
50363;SDS011;36272;59.400;17.982;2023-04-12T01:35:13;17.10;;;11.05;;
50363;SDS011;36272;59.400;17.982;2023-04-12T01:40:17;17.80;;;10.88;;
50363;SDS011;36272;59.400;17.982;2023-04-12T01:45:19;17.15;;;11.73;;
50363;SDS011;36272;59.400;17.982;2023-04-12T01:50:34;25.63;;;12.10;;
50363;SDS011;36272;59.400;17.982;2023-04-12T01:55:43;23.45;;;11.88;;
50363;SDS011;36272;59.400;17.982;2023-04-12T02:00:46;19.52;;;10.95;;
50363;SDS011;36272;59.400;17.982;2023-04-12T02:05:50;20.88;;;11.93;;
50363;SDS011;36272;59.400;17.982;2023-04-12T02:10:53;19.00;;;11.60;;
50363;SDS011;36272;59.400;17.982;2023-04-12T02:15:55;17.90;;;11.85;;
50363;SDS011;36272;59.400;17.982;2023-04-12T02:20:57;17.65;;;11.73;;
50363;SDS011;36272;59.400;17.982;2023-04-12T02:25:58;13.50;;;9.88;;
50363;SDS011;36272;59.400;17.982;2023-04-12T02:31:01;20.90;;;14.80;;
50363;SDS011;36272;59.400;17.982;2023-04-12T02:36:02;21.00;;;14.05;;
50363;SDS011;36272;59.400;17.982;2023-04-12T02:41:17;23.52;;;15.43;;
50363;SDS011;36272;59.400;17.982;2023-04-12T02:46:21;25.90;;;14.98;;
50363;SDS011;36272;59.400;17.982;2023-04-12T02:51:24;29.07;;;16.93;;
50363;SDS011;36272;59.400;17.982;2023-04-12T02:56:27;31.63;;;18.45;;
50363;SDS011;36272;59.400;17.982;2023-04-12T03:01:30;29.17;;;17.38;;
50363;SDS011;36272;59.400;17.982;2023-04-12T03:06:32;28.52;;;19.52;;
50363;SDS011;36272;59.400;17.982;2023-04-12T03:11:33;35.67;;;20.80;;
50363;SDS011;36272;59.400;17.982;2023-04-12T03:16:35;32.50;;;20.20;;
50363;SDS011;36272;59.400;17.982;2023-04-12T03:21:37;34.53;;;21.80;;
50363;SDS011;36272;59.400;17.982;2023-04-12T03:26:38;38.55;;;22.73;;
50363;SDS011;36272;59.400;17.982;2023-04-12T03:31:41;37.15;;;23.90;;
50363;SDS011;36272;59.400;17.982;2023-04-12T03:36:43;44.15;;;24.60;;
50363;SDS011;36272;59.400;17.982;2023-04-12T03:41:45;42.05;;;23.17;;
50363;SDS011;36272;59.400;17.982;2023-04-12T03:46:46;43.67;;;24.00;;
50363;SDS011;36272;59.400;17.982;2023-04-12T03:51:49;44.42;;;24.60;;
50363;SDS011;36272;59.400;17.982;2023-04-12T03:56:51;35.05;;;21.20;;
50363;SDS011;36272;59.400;17.982;2023-04-12T04:01:52;37.75;;;23.83;;
50363;SDS011;36272;59.400;17.982;2023-04-12T04:06:54;44.00;;;24.42;;
50363;SDS011;36272;59.400;17.982;2023-04-12T04:11:56;41.08;;;25.50;;
50363;SDS011;36272;59.400;17.982;2023-04-12T04:16:58;48.63;;;26.83;;
50363;SDS011;36272;59.400;17.982;2023-04-12T04:22:00;43.47;;;25.60;;
50363;SDS011;36272;59.400;17.982;2023-04-12T04:27:04;48.45;;;27.80;;
50363;SDS011;36272;59.400;17.982;2023-04-12T04:32:06;49.95;;;27.05;;
50363;SDS011;36272;59.400;17.982;2023-04-12T04:37:08;44.92;;;26.55;;
50363;SDS011;36272;59.400;17.982;2023-04-12T04:42:10;44.80;;;26.25;;
50363;SDS011;36272;59.400;17.982;2023-04-12T04:47:11;43.50;;;25.48;;
50363;SDS011;36272;59.400;17.982;2023-04-12T04:52:18;46.40;;;27.95;;
50363;SDS011;36272;59.400;17.982;2023-04-12T04:57:20;42.65;;;26.98;;
50363;SDS011;36272;59.400;17.982;2023-04-12T05:02:27;43.88;;;27.13;;
50363;SDS011;36272;59.400;17.982;2023-04-12T05:07:28;46.47;;;26.83;;
50363;SDS011;36272;59.400;17.982;2023-04-12T05:12:33;40.30;;;24.42;;
50363;SDS011;36272;59.400;17.982;2023-04-12T05:17:35;43.63;;;26.00;;
50363;SDS011;36272;59.400;17.982;2023-04-12T05:22:46;38.03;;;24.02;;
50363;SDS011;36272;59.400;17.982;2023-04-12T05:27:48;38.75;;;24.05;;
50363;SDS011;36272;59.400;17.982;2023-04-12T05:32:50;40.55;;;23.90;;
50363;SDS011;36272;59.400;17.982;2023-04-12T05:37:51;35.13;;;22.83;;
50363;SDS011;36272;59.400;17.982;2023-04-12T05:42:53;35.75;;;22.77;;
50363;SDS011;36272;59.400;17.982;2023-04-12T05:47:55;35.40;;;22.95;;
50363;SDS011;36272;59.400;17.982;2023-04-12T05:52:56;31.85;;;21.40;;
50363;SDS011;36272;59.400;17.982;2023-04-12T05:57:58;35.45;;;21.80;;
50363;SDS011;36272;59.400;17.982;2023-04-12T06:03:00;32.15;;;21.08;;
50363;SDS011;36272;59.400;17.982;2023-04-12T06:08:02;31.85;;;20.45;;
50363;SDS011;36272;59.400;17.982;2023-04-12T06:13:05;27.23;;;18.38;;
50363;SDS011;36272;59.400;17.982;2023-04-12T06:18:07;29.60;;;19.50;;
50363;SDS011;36272;59.400;17.982;2023-04-12T06:23:08;28.63;;;18.67;;
50363;SDS011;36272;59.400;17.982;2023-04-12T06:28:10;25.25;;;17.73;;
50363;SDS011;36272;59.400;17.982;2023-04-12T06:33:11;29.23;;;16.67;;
50363;SDS011;36272;59.400;17.982;2023-04-12T06:38:17;25.60;;;16.77;;
50363;SDS011;36272;59.400;17.982;2023-04-12T06:43:26;26.48;;;16.48;;
50363;SDS011;36272;59.400;17.982;2023-04-12T06:48:28;22.42;;;16.10;;
50363;SDS011;36272;59.400;17.982;2023-04-12T06:53:30;25.25;;;17.02;;
50363;SDS011;36272;59.400;17.982;2023-04-12T06:58:31;30.33;;;16.90;;
50363;SDS011;36272;59.400;17.982;2023-04-12T07:03:33;22.48;;;14.77;;
50363;SDS011;36272;59.400;17.982;2023-04-12T07:08:35;24.10;;;15.80;;
50363;SDS011;36272;59.400;17.982;2023-04-12T07:13:37;25.67;;;15.57;;
50363;SDS011;36272;59.400;17.982;2023-04-12T07:18:39;24.40;;;15.65;;
50363;SDS011;36272;59.400;17.982;2023-04-12T07:23:41;23.95;;;15.15;;
50363;SDS011;36272;59.400;17.982;2023-04-12T07:28:42;21.95;;;14.05;;
50363;SDS011;36272;59.400;17.982;2023-04-12T07:33:44;24.65;;;14.40;;
50363;SDS011;36272;59.400;17.982;2023-04-12T07:38:45;22.70;;;13.68;;
50363;SDS011;36272;59.400;17.982;2023-04-12T07:43:47;24.90;;;15.10;;
50363;SDS011;36272;59.400;17.982;2023-04-12T07:48:50;25.85;;;14.93;;
50363;SDS011;36272;59.400;17.982;2023-04-12T07:53:51;24.67;;;13.48;;
50363;SDS011;36272;59.400;17.982;2023-04-12T07:58:53;24.98;;;15.00;;
50363;SDS011;36272;59.400;17.982;2023-04-12T08:03:55;23.23;;;13.43;;
50363;SDS011;36272;59.400;17.982;2023-04-12T08:08:56;22.95;;;12.68;;
50363;SDS011;36272;59.400;17.982;2023-04-12T08:13:58;21.92;;;13.00;;
50363;SDS011;36272;59.400;17.982;2023-04-12T08:19:00;20.40;;;12.98;;
50363;SDS011;36272;59.400;17.982;2023-04-12T08:24:02;18.88;;;12.35;;
50363;SDS011;36272;59.400;17.982;2023-04-12T08:29:04;21.08;;;12.68;;
50363;SDS011;36272;59.400;17.982;2023-04-12T08:34:06;36.25;;;13.35;;
50363;SDS011;36272;59.400;17.982;2023-04-12T08:39:07;25.10;;;13.23;;
50363;SDS011;36272;59.400;17.982;2023-04-12T08:44:10;26.55;;;13.18;;
50363;SDS011;36272;59.400;17.982;2023-04-12T08:49:12;17.83;;;12.10;;
50363;SDS011;36272;59.400;17.982;2023-04-12T08:54:13;22.38;;;12.00;;
50363;SDS011;36272;59.400;17.982;2023-04-12T08:59:16;22.05;;;12.45;;
50363;SDS011;36272;59.400;17.982;2023-04-12T09:04:17;22.23;;;12.75;;
50363;SDS011;36272;59.400;17.982;2023-04-12T09:09:31;19.80;;;11.13;;
50363;SDS011;36272;59.400;17.982;2023-04-12T09:14:41;18.58;;;11.93;;
50363;SDS011;36272;59.400;17.982;2023-04-12T09:19:48;22.38;;;12.68;;
50363;SDS011;36272;59.400;17.982;2023-04-12T09:24:50;22.02;;;11.48;;
50363;SDS011;36272;59.400;17.982;2023-04-12T09:30:06;18.80;;;10.93;;
50363;SDS011;36272;59.400;17.982;2023-04-12T09:35:08;20.97;;;10.90;;
50363;SDS011;36272;59.400;17.982;2023-04-12T09:40:10;22.70;;;11.30;;
50363;SDS011;36272;59.400;17.982;2023-04-12T09:45:22;17.67;;;10.63;;
50363;SDS011;36272;59.400;17.982;2023-04-12T09:50:26;14.68;;;9.48;;
50363;SDS011;36272;59.400;17.982;2023-04-12T09:55:29;19.23;;;10.13;;
50363;SDS011;36272;59.400;17.982;2023-04-12T10:05:42;17.08;;;9.45;;
50363;SDS011;36272;59.400;17.982;2023-04-12T10:10:44;15.88;;;9.13;;
50363;SDS011;36272;59.400;17.982;2023-04-12T10:15:47;44.70;;;10.13;;
50363;SDS011;36272;59.400;17.982;2023-04-12T10:20:50;24.67;;;9.43;;
50363;SDS011;36272;59.400;17.982;2023-04-12T10:25:53;29.73;;;9.93;;
50363;SDS011;36272;59.400;17.982;2023-04-12T10:30:57;24.10;;;9.80;;
50363;SDS011;36272;59.400;17.982;2023-04-12T10:36:00;24.95;;;9.85;;
50363;SDS011;36272;59.400;17.982;2023-04-12T10:57:01;20.75;;;8.90;;
50363;SDS011;36272;59.400;17.982;2023-04-12T11:02:10;17.15;;;9.38;;
50363;SDS011;36272;59.400;17.982;2023-04-12T11:07:12;11.32;;;8.10;;
50363;SDS011;36272;59.400;17.982;2023-04-12T11:12:14;11.13;;;7.85;;
50363;SDS011;36272;59.400;17.982;2023-04-12T11:22:18;12.70;;;7.00;;
50363;SDS011;36272;59.400;17.982;2023-04-12T11:27:22;15.55;;;7.65;;
50363;SDS011;36272;59.400;17.982;2023-04-12T11:32:26;14.50;;;6.25;;
50363;SDS011;36272;59.400;17.982;2023-04-12T11:37:31;17.75;;;7.40;;
50363;SDS011;36272;59.400;17.982;2023-04-12T11:42:33;16.17;;;7.20;;
50363;SDS011;36272;59.400;17.982;2023-04-12T11:47:35;14.40;;;7.70;;
50363;SDS011;36272;59.400;17.982;2023-04-12T11:52:43;15.52;;;8.38;;
50363;SDS011;36272;59.400;17.982;2023-04-12T11:57:45;13.25;;;7.30;;
50363;SDS011;36272;59.400;17.982;2023-04-12T12:02:54;12.27;;;7.45;;
50363;SDS011;36272;59.400;17.982;2023-04-12T12:07:55;9.77;;;7.25;;
50363;SDS011;36272;59.400;17.982;2023-04-12T12:12:57;11.13;;;6.20;;
50363;SDS011;36272;59.400;17.982;2023-04-12T12:17:58;10.73;;;7.95;;
50363;SDS011;36272;59.400;17.982;2023-04-12T12:23:03;11.90;;;7.28;;
50363;SDS011;36272;59.400;17.982;2023-04-12T12:28:05;15.27;;;6.88;;
50363;SDS011;36272;59.400;17.982;2023-04-12T12:33:17;11.15;;;6.32;;
50363;SDS011;36272;59.400;17.982;2023-04-12T12:38:20;14.60;;;7.30;;
50363;SDS011;36272;59.400;17.982;2023-04-12T12:43:23;9.65;;;5.95;;
50363;SDS011;36272;59.400;17.982;2023-04-12T12:48:25;16.02;;;6.50;;
50363;SDS011;36272;59.400;17.982;2023-04-12T12:53:28;7.47;;;5.90;;
50363;SDS011;36272;59.400;17.982;2023-04-12T12:58:30;7.85;;;5.47;;
50363;SDS011;36272;59.400;17.982;2023-04-12T13:03:32;11.63;;;6.28;;
50363;SDS011;36272;59.400;17.982;2023-04-12T13:08:33;15.48;;;6.22;;
50363;SDS011;36272;59.400;17.982;2023-04-12T13:13:37;63.03;;;8.90;;
50363;SDS011;36272;59.400;17.982;2023-04-12T13:18:38;10.77;;;6.30;;
50363;SDS011;36272;59.400;17.982;2023-04-12T13:23:40;15.25;;;7.05;;
50363;SDS011;36272;59.400;17.982;2023-04-12T13:28:42;324.60;;;21.50;;
50363;SDS011;36272;59.400;17.982;2023-04-12T13:33:44;9.73;;;6.82;;
50363;SDS011;36272;59.400;17.982;2023-04-12T13:38:45;26.42;;;7.00;;
50363;SDS011;36272;59.400;17.982;2023-04-12T13:43:47;11.73;;;6.78;;
50363;SDS011;36272;59.400;17.982;2023-04-12T13:48:49;21.30;;;7.55;;
50363;SDS011;36272;59.400;17.982;2023-04-12T13:53:51;13.93;;;7.32;;
50363;SDS011;36272;59.400;17.982;2023-04-12T13:58:53;15.25;;;7.40;;
50363;SDS011;36272;59.400;17.982;2023-04-12T14:03:56;18.15;;;7.55;;
50363;SDS011;36272;59.400;17.982;2023-04-12T14:08:58;12.80;;;7.43;;
50363;SDS011;36272;59.400;17.982;2023-04-12T14:14:00;14.43;;;7.70;;
50363;SDS011;36272;59.400;17.982;2023-04-12T14:19:01;51.17;;;9.02;;
50363;SDS011;36272;59.400;17.982;2023-04-12T14:24:03;14.93;;;8.15;;
50363;SDS011;36272;59.400;17.982;2023-04-12T14:29:05;18.15;;;8.18;;
50363;SDS011;36272;59.400;17.982;2023-04-12T14:34:07;20.75;;;8.73;;
50363;SDS011;36272;59.400;17.982;2023-04-12T14:39:10;14.38;;;7.88;;
50363;SDS011;36272;59.400;17.982;2023-04-12T14:44:12;13.13;;;7.90;;
50363;SDS011;36272;59.400;17.982;2023-04-12T14:49:14;15.48;;;7.72;;
50363;SDS011;36272;59.400;17.982;2023-04-12T14:54:15;17.20;;;8.63;;
50363;SDS011;36272;59.400;17.982;2023-04-12T14:59:17;19.52;;;9.00;;
50363;SDS011;36272;59.400;17.982;2023-04-12T15:04:18;15.48;;;9.10;;
50363;SDS011;36272;59.400;17.982;2023-04-12T15:09:20;12.77;;;9.15;;
50363;SDS011;36272;59.400;17.982;2023-04-12T15:14:22;23.45;;;9.88;;
50363;SDS011;36272;59.400;17.982;2023-04-12T15:19:23;37.78;;;9.98;;
50363;SDS011;36272;59.400;17.982;2023-04-12T15:24:25;13.32;;;8.95;;
50363;SDS011;36272;59.400;17.982;2023-04-12T15:29:27;28.20;;;10.48;;
50363;SDS011;36272;59.400;17.982;2023-04-12T15:34:29;13.23;;;10.05;;
50363;SDS011;36272;59.400;17.982;2023-04-12T15:39:38;17.58;;;10.55;;
50363;SDS011;36272;59.400;17.982;2023-04-12T15:44:41;29.85;;;10.90;;
50363;SDS011;36272;59.400;17.982;2023-04-12T15:49:43;19.50;;;9.38;;
50363;SDS011;36272;59.400;17.982;2023-04-12T15:54:45;13.63;;;8.98;;
50363;SDS011;36272;59.400;17.982;2023-04-12T15:59:51;18.25;;;10.52;;
50363;SDS011;36272;59.400;17.982;2023-04-12T16:04:55;23.02;;;10.43;;
50363;SDS011;36272;59.400;17.982;2023-04-12T16:09:57;17.05;;;11.02;;
50363;SDS011;36272;59.400;17.982;2023-04-12T16:14:59;16.85;;;11.00;;
50363;SDS011;36272;59.400;17.982;2023-04-12T16:20:01;17.48;;;11.07;;
50363;SDS011;36272;59.400;17.982;2023-04-12T16:25:06;40.40;;;11.13;;
50363;SDS011;36272;59.400;17.982;2023-04-12T16:30:08;20.27;;;10.77;;
50363;SDS011;36272;59.400;17.982;2023-04-12T16:35:12;14.15;;;9.90;;
50363;SDS011;36272;59.400;17.982;2023-04-12T16:40:15;14.35;;;8.88;;
50363;SDS011;36272;59.400;17.982;2023-04-12T16:45:17;17.52;;;9.73;;
50363;SDS011;36272;59.400;17.982;2023-04-12T16:50:19;16.58;;;11.05;;
50363;SDS011;36272;59.400;17.982;2023-04-12T16:55:21;16.52;;;11.38;;
50363;SDS011;36272;59.400;17.982;2023-04-12T17:00:25;24.88;;;10.18;;
50363;SDS011;36272;59.400;17.982;2023-04-12T17:05:29;22.08;;;10.57;;
50363;SDS011;36272;59.400;17.982;2023-04-12T17:10:31;17.08;;;9.50;;
50363;SDS011;36272;59.400;17.982;2023-04-12T17:15:33;36.67;;;11.85;;
50363;SDS011;36272;59.400;17.982;2023-04-12T17:20:36;16.08;;;10.20;;
50363;SDS011;36272;59.400;17.982;2023-04-12T17:25:38;15.05;;;10.02;;
50363;SDS011;36272;59.400;17.982;2023-04-12T17:30:40;19.42;;;10.95;;
50363;SDS011;36272;59.400;17.982;2023-04-12T17:35:41;19.17;;;11.23;;
50363;SDS011;36272;59.400;17.982;2023-04-12T17:40:43;16.60;;;10.38;;
50363;SDS011;36272;59.400;17.982;2023-04-12T17:45:45;24.67;;;11.65;;
50363;SDS011;36272;59.400;17.982;2023-04-12T17:50:47;28.05;;;10.55;;
50363;SDS011;36272;59.400;17.982;2023-04-12T17:55:48;20.23;;;11.32;;
50363;SDS011;36272;59.400;17.982;2023-04-12T18:00:50;22.52;;;12.07;;
50363;SDS011;36272;59.400;17.982;2023-04-12T18:05:52;19.08;;;11.60;;
50363;SDS011;36272;59.400;17.982;2023-04-12T18:10:54;21.15;;;10.48;;
50363;SDS011;36272;59.400;17.982;2023-04-12T18:15:56;18.45;;;12.98;;
50363;SDS011;36272;59.400;17.982;2023-04-12T18:20:57;20.45;;;12.40;;
50363;SDS011;36272;59.400;17.982;2023-04-12T18:31:06;20.02;;;12.93;;
50363;SDS011;36272;59.400;17.982;2023-04-12T18:36:07;17.73;;;11.45;;
50363;SDS011;36272;59.400;17.982;2023-04-12T18:41:12;18.83;;;12.82;;
50363;SDS011;36272;59.400;17.982;2023-04-12T18:51:20;21.98;;;12.20;;
50363;SDS011;36272;59.400;17.982;2023-04-12T18:56:22;20.98;;;12.40;;
50363;SDS011;36272;59.400;17.982;2023-04-12T19:01:24;33.58;;;12.95;;
50363;SDS011;36272;59.400;17.982;2023-04-12T19:06:26;20.65;;;11.60;;
50363;SDS011;36272;59.400;17.982;2023-04-12T19:11:28;20.33;;;13.07;;
50363;SDS011;36272;59.400;17.982;2023-04-12T19:16:30;20.45;;;12.23;;
50363;SDS011;36272;59.400;17.982;2023-04-12T19:21:32;18.60;;;12.73;;
50363;SDS011;36272;59.400;17.982;2023-04-12T19:26:34;17.92;;;13.10;;
50363;SDS011;36272;59.400;17.982;2023-04-12T19:31:41;17.77;;;12.20;;
50363;SDS011;36272;59.400;17.982;2023-04-12T19:36:45;18.88;;;12.35;;
50363;SDS011;36272;59.400;17.982;2023-04-12T19:41:47;21.55;;;12.40;;
50363;SDS011;36272;59.400;17.982;2023-04-12T19:46:49;19.88;;;12.02;;
50363;SDS011;36272;59.400;17.982;2023-04-12T19:51:52;20.48;;;11.10;;
50363;SDS011;36272;59.400;17.982;2023-04-12T19:56:53;19.08;;;12.63;;
50363;SDS011;36272;59.400;17.982;2023-04-12T20:01:55;21.55;;;11.98;;
50363;SDS011;36272;59.400;17.982;2023-04-12T20:06:58;19.52;;;11.07;;
50363;SDS011;36272;59.400;17.982;2023-04-12T20:12:08;18.20;;;12.80;;
50363;SDS011;36272;59.400;17.982;2023-04-12T20:17:10;20.35;;;12.15;;
50363;SDS011;36272;59.400;17.982;2023-04-12T20:22:12;26.63;;;13.25;;
50363;SDS011;36272;59.400;17.982;2023-04-12T20:27:14;23.73;;;14.50;;
50363;SDS011;36272;59.400;17.982;2023-04-12T20:32:20;19.70;;;14.27;;
50363;SDS011;36272;59.400;17.982;2023-04-12T20:37:21;20.15;;;14.05;;
50363;SDS011;36272;59.400;17.982;2023-04-12T20:42:23;24.15;;;14.20;;
50363;SDS011;36272;59.400;17.982;2023-04-12T20:47:25;24.38;;;14.85;;
50363;SDS011;36272;59.400;17.982;2023-04-12T20:52:27;19.85;;;14.30;;
50363;SDS011;36272;59.400;17.982;2023-04-12T20:57:30;22.52;;;14.48;;
50363;SDS011;36272;59.400;17.982;2023-04-12T21:02:31;22.98;;;15.00;;
50363;SDS011;36272;59.400;17.982;2023-04-12T21:07:33;23.52;;;14.20;;
50363;SDS011;36272;59.400;17.982;2023-04-12T21:12:35;21.20;;;13.25;;
50363;SDS011;36272;59.400;17.982;2023-04-12T21:17:36;22.13;;;13.70;;
50363;SDS011;36272;59.400;17.982;2023-04-12T21:22:39;19.35;;;12.90;;
50363;SDS011;36272;59.400;17.982;2023-04-12T21:27:42;20.95;;;14.30;;
50363;SDS011;36272;59.400;17.982;2023-04-12T21:32:46;19.40;;;14.07;;
50363;SDS011;36272;59.400;17.982;2023-04-12T21:37:47;25.15;;;14.70;;
50363;SDS011;36272;59.400;17.982;2023-04-12T21:42:51;21.10;;;15.70;;
50363;SDS011;36272;59.400;17.982;2023-04-12T21:47:54;22.83;;;15.20;;
50363;SDS011;36272;59.400;17.982;2023-04-12T21:52:56;22.65;;;16.20;;
50363;SDS011;36272;59.400;17.982;2023-04-12T21:57:58;23.33;;;16.23;;
50363;SDS011;36272;59.400;17.982;2023-04-12T22:02:59;21.13;;;13.73;;
50363;SDS011;36272;59.400;17.982;2023-04-12T22:08:01;20.80;;;13.30;;
50363;SDS011;36272;59.400;17.982;2023-04-12T22:13:03;27.05;;;15.38;;
50363;SDS011;36272;59.400;17.982;2023-04-12T22:18:04;19.02;;;14.00;;
50363;SDS011;36272;59.400;17.982;2023-04-12T22:23:07;23.90;;;14.38;;
50363;SDS011;36272;59.400;17.982;2023-04-12T22:28:09;16.73;;;11.90;;
50363;SDS011;36272;59.400;17.982;2023-04-12T22:33:12;18.52;;;13.35;;
50363;SDS011;36272;59.400;17.982;2023-04-12T22:38:13;18.00;;;13.38;;
50363;SDS011;36272;59.400;17.982;2023-04-12T22:43:15;21.73;;;13.73;;
50363;SDS011;36272;59.400;17.982;2023-04-12T22:48:22;20.45;;;13.23;;
50363;SDS011;36272;59.400;17.982;2023-04-12T22:53:30;19.17;;;12.93;;
50363;SDS011;36272;59.400;17.982;2023-04-12T22:58:36;19.40;;;12.18;;
50363;SDS011;36272;59.400;17.982;2023-04-12T23:03:37;20.13;;;12.93;;
50363;SDS011;36272;59.400;17.982;2023-04-12T23:08:41;20.60;;;13.63;;
50363;SDS011;36272;59.400;17.982;2023-04-12T23:13:43;19.27;;;12.70;;
50363;SDS011;36272;59.400;17.982;2023-04-12T23:18:45;16.15;;;12.38;;
50363;SDS011;36272;59.400;17.982;2023-04-12T23:23:48;20.52;;;13.23;;
50363;SDS011;36272;59.400;17.982;2023-04-12T23:28:50;22.38;;;13.73;;
50363;SDS011;36272;59.400;17.982;2023-04-12T23:33:52;20.10;;;13.57;;
50363;SDS011;36272;59.400;17.982;2023-04-12T23:38:55;19.20;;;12.85;;
50363;SDS011;36272;59.400;17.982;2023-04-12T23:44:00;16.93;;;13.63;;
50363;SDS011;36272;59.400;17.982;2023-04-12T23:49:01;17.58;;;11.07;;
50363;SDS011;36272;59.400;17.982;2023-04-12T23:54:03;18.80;;;12.68;;
50363;SDS011;36272;59.400;17.982;2023-04-12T23:59:05;20.33;;;12.02;;
